sensor_id;sensor_type;location;lat;lon;timestamp;P1;durP1;ratioP1;P2;durP2;ratioP2
41661;SDS011;27351;45.992;12.666;2023-01-25T00:01:13;7.20;;;4.10;;
41661;SDS011;27351;45.992;12.666;2023-01-25T00:03:38;7.50;;;4.00;;
41661;SDS011;27351;45.992;12.666;2023-01-25T00:06:04;7.53;;;3.77;;
41661;SDS011;27351;45.992;12.666;2023-01-25T00:08:30;6.23;;;3.60;;
41661;SDS011;27351;45.992;12.666;2023-01-25T00:10:55;7.13;;;3.73;;
41661;SDS011;27351;45.992;12.666;2023-01-25T00:13:21;7.28;;;4.40;;
41661;SDS011;27351;45.992;12.666;2023-01-25T00:15:47;9.38;;;4.40;;
41661;SDS011;27351;45.992;12.666;2023-01-25T00:18:12;9.52;;;4.80;;
41661;SDS011;27351;45.992;12.666;2023-01-25T00:20:38;7.25;;;4.13;;
41661;SDS011;27351;45.992;12.666;2023-01-25T00:23:04;7.63;;;4.47;;
41661;SDS011;27351;45.992;12.666;2023-01-25T00:25:29;8.80;;;5.10;;
41661;SDS011;27351;45.992;12.666;2023-01-25T00:27:55;8.77;;;4.90;;
41661;SDS011;27351;45.992;12.666;2023-01-25T00:30:20;9.83;;;4.47;;
41661;SDS011;27351;45.992;12.666;2023-01-25T00:32:47;8.63;;;4.27;;
41661;SDS011;27351;45.992;12.666;2023-01-25T00:35:13;8.35;;;4.88;;
41661;SDS011;27351;45.992;12.666;2023-01-25T00:37:41;8.18;;;4.85;;
41661;SDS011;27351;45.992;12.666;2023-01-25T00:40:09;7.97;;;4.47;;
41661;SDS011;27351;45.992;12.666;2023-01-25T00:42:36;6.90;;;4.00;;
41661;SDS011;27351;45.992;12.666;2023-01-25T00:45:03;8.23;;;4.57;;
41661;SDS011;27351;45.992;12.666;2023-01-25T00:47:28;8.23;;;4.50;;
41661;SDS011;27351;45.992;12.666;2023-01-25T00:49:54;7.60;;;4.30;;
41661;SDS011;27351;45.992;12.666;2023-01-25T00:52:19;7.13;;;3.90;;
41661;SDS011;27351;45.992;12.666;2023-01-25T00:54:48;8.05;;;4.57;;
41661;SDS011;27351;45.992;12.666;2023-01-25T00:57:13;8.33;;;4.73;;
41661;SDS011;27351;45.992;12.666;2023-01-25T00:59:39;9.97;;;4.53;;
41661;SDS011;27351;45.992;12.666;2023-01-25T01:02:12;8.07;;;4.32;;
41661;SDS011;27351;45.992;12.666;2023-01-25T01:04:38;8.35;;;4.72;;
41661;SDS011;27351;45.992;12.666;2023-01-25T01:07:03;6.72;;;3.75;;
41661;SDS011;27351;45.992;12.666;2023-01-25T01:09:29;7.27;;;4.00;;
41661;SDS011;27351;45.992;12.666;2023-01-25T01:11:57;6.70;;;4.05;;
41661;SDS011;27351;45.992;12.666;2023-01-25T01:14:23;6.55;;;3.60;;
41661;SDS011;27351;45.992;12.666;2023-01-25T01:16:49;6.23;;;4.00;;
41661;SDS011;27351;45.992;12.666;2023-01-25T01:19:14;7.17;;;4.00;;
41661;SDS011;27351;45.992;12.666;2023-01-25T01:21:40;7.67;;;4.37;;
41661;SDS011;27351;45.992;12.666;2023-01-25T01:24:07;6.55;;;4.15;;
41661;SDS011;27351;45.992;12.666;2023-01-25T01:26:33;6.65;;;3.90;;
41661;SDS011;27351;45.992;12.666;2023-01-25T01:28:58;7.37;;;4.30;;
41661;SDS011;27351;45.992;12.666;2023-01-25T01:31:25;7.15;;;4.10;;
41661;SDS011;27351;45.992;12.666;2023-01-25T01:34:01;7.30;;;4.47;;
41661;SDS011;27351;45.992;12.666;2023-01-25T01:36:27;8.38;;;3.92;;
41661;SDS011;27351;45.992;12.666;2023-01-25T01:38:53;6.63;;;3.90;;
41661;SDS011;27351;45.992;12.666;2023-01-25T01:41:19;6.73;;;4.23;;
41661;SDS011;27351;45.992;12.666;2023-01-25T01:43:45;6.85;;;4.00;;
41661;SDS011;27351;45.992;12.666;2023-01-25T01:46:14;7.20;;;4.00;;
41661;SDS011;27351;45.992;12.666;2023-01-25T01:59:19;7.57;;;4.67;;
41661;SDS011;27351;45.992;12.666;2023-01-25T02:01:46;7.15;;;4.25;;
41661;SDS011;27351;45.992;12.666;2023-01-25T02:04:12;7.73;;;4.20;;
41661;SDS011;27351;45.992;12.666;2023-01-25T02:06:41;7.47;;;4.00;;
41661;SDS011;27351;45.992;12.666;2023-01-25T02:09:09;6.43;;;4.03;;
41661;SDS011;27351;45.992;12.666;2023-01-25T02:11:35;8.93;;;4.20;;
41661;SDS011;27351;45.992;12.666;2023-01-25T02:14:02;7.17;;;3.90;;
41661;SDS011;27351;45.992;12.666;2023-01-25T02:16:28;7.05;;;4.00;;
41661;SDS011;27351;45.992;12.666;2023-01-25T02:18:55;6.27;;;3.50;;
41661;SDS011;27351;45.992;12.666;2023-01-25T02:21:22;6.32;;;3.45;;
41661;SDS011;27351;45.992;12.666;2023-01-25T02:26:16;5.88;;;3.65;;
41661;SDS011;27351;45.992;12.666;2023-01-25T02:28:51;5.97;;;3.33;;
41661;SDS011;27351;45.992;12.666;2023-01-25T02:31:22;5.68;;;3.25;;
41661;SDS011;27351;45.992;12.666;2023-01-25T02:33:47;5.63;;;3.10;;
41661;SDS011;27351;45.992;12.666;2023-01-25T02:36:15;5.80;;;3.17;;
41661;SDS011;27351;45.992;12.666;2023-01-25T02:38:46;5.68;;;3.03;;
41661;SDS011;27351;45.992;12.666;2023-01-25T02:41:30;5.60;;;2.87;;
41661;SDS011;27351;45.992;12.666;2023-01-25T02:43:57;6.32;;;3.17;;
41661;SDS011;27351;45.992;12.666;2023-01-25T02:46:24;5.47;;;3.08;;
41661;SDS011;27351;45.992;12.666;2023-01-25T02:48:55;4.55;;;2.83;;
41661;SDS011;27351;45.992;12.666;2023-01-25T02:51:21;6.10;;;3.00;;
41661;SDS011;27351;45.992;12.666;2023-01-25T02:53:47;5.28;;;3.05;;
41661;SDS011;27351;45.992;12.666;2023-01-25T02:56:14;6.28;;;3.45;;
41661;SDS011;27351;45.992;12.666;2023-01-25T02:58:40;5.65;;;3.33;;
41661;SDS011;27351;45.992;12.666;2023-01-25T03:01:05;6.90;;;3.27;;
41661;SDS011;27351;45.992;12.666;2023-01-25T03:03:31;6.60;;;3.67;;
41661;SDS011;27351;45.992;12.666;2023-01-25T03:05:57;6.83;;;3.60;;
41661;SDS011;27351;45.992;12.666;2023-01-25T03:08:24;6.40;;;3.25;;
41661;SDS011;27351;45.992;12.666;2023-01-25T03:10:56;7.27;;;3.73;;
41661;SDS011;27351;45.992;12.666;2023-01-25T03:13:22;8.45;;;4.15;;
41661;SDS011;27351;45.992;12.666;2023-01-25T03:15:48;6.45;;;3.78;;
41661;SDS011;27351;45.992;12.666;2023-01-25T03:18:14;7.82;;;3.47;;
41661;SDS011;27351;45.992;12.666;2023-01-25T03:20:40;6.87;;;3.57;;
41661;SDS011;27351;45.992;12.666;2023-01-25T03:23:06;6.53;;;3.55;;
41661;SDS011;27351;45.992;12.666;2023-01-25T03:25:33;6.60;;;3.90;;
41661;SDS011;27351;45.992;12.666;2023-01-25T03:28:07;5.78;;;3.33;;
41661;SDS011;27351;45.992;12.666;2023-01-25T03:30:33;7.22;;;3.50;;
41661;SDS011;27351;45.992;12.666;2023-01-25T03:32:59;5.78;;;3.42;;
41661;SDS011;27351;45.992;12.666;2023-01-25T03:35:24;6.07;;;3.10;;
41661;SDS011;27351;45.992;12.666;2023-01-25T03:37:51;5.13;;;3.10;;
41661;SDS011;27351;45.992;12.666;2023-01-25T03:40:17;6.18;;;3.47;;
41661;SDS011;27351;45.992;12.666;2023-01-25T03:42:47;7.07;;;3.40;;
41661;SDS011;27351;45.992;12.666;2023-01-25T03:45:13;5.73;;;3.00;;
41661;SDS011;27351;45.992;12.666;2023-01-25T03:47:39;5.82;;;3.20;;
41661;SDS011;27351;45.992;12.666;2023-01-25T03:50:07;5.10;;;2.92;;
41661;SDS011;27351;45.992;12.666;2023-01-25T03:52:36;6.00;;;2.90;;
41661;SDS011;27351;45.992;12.666;2023-01-25T03:55:10;5.97;;;3.30;;
41661;SDS011;27351;45.992;12.666;2023-01-25T03:57:40;5.28;;;3.00;;
41661;SDS011;27351;45.992;12.666;2023-01-25T04:00:05;6.82;;;3.17;;
41661;SDS011;27351;45.992;12.666;2023-01-25T04:02:40;5.07;;;2.83;;
41661;SDS011;27351;45.992;12.666;2023-01-25T04:05:08;5.28;;;2.60;;
41661;SDS011;27351;45.992;12.666;2023-01-25T04:07:35;5.65;;;3.20;;
41661;SDS011;27351;45.992;12.666;2023-01-25T04:10:03;5.47;;;2.90;;
41661;SDS011;27351;45.992;12.666;2023-01-25T04:12:28;6.22;;;3.10;;
41661;SDS011;27351;45.992;12.666;2023-01-25T04:14:54;6.87;;;3.27;;
41661;SDS011;27351;45.992;12.666;2023-01-25T04:17:21;5.10;;;2.78;;
41661;SDS011;27351;45.992;12.666;2023-01-25T04:19:53;6.43;;;3.10;;
41661;SDS011;27351;45.992;12.666;2023-01-25T04:22:23;5.53;;;2.90;;
41661;SDS011;27351;45.992;12.666;2023-01-25T04:24:52;6.50;;;3.20;;
41661;SDS011;27351;45.992;12.666;2023-01-25T04:27:17;7.20;;;3.90;;
41661;SDS011;27351;45.992;12.666;2023-01-25T04:29:52;5.55;;;3.13;;
41661;SDS011;27351;45.992;12.666;2023-01-25T04:32:20;5.95;;;3.40;;
41661;SDS011;27351;45.992;12.666;2023-01-25T04:34:45;6.10;;;3.30;;
41661;SDS011;27351;45.992;12.666;2023-01-25T04:37:15;7.03;;;3.85;;
41661;SDS011;27351;45.992;12.666;2023-01-25T04:39:49;7.18;;;3.97;;
41661;SDS011;27351;45.992;12.666;2023-01-25T04:42:15;7.20;;;3.85;;
41661;SDS011;27351;45.992;12.666;2023-01-25T04:44:43;8.20;;;3.73;;
41661;SDS011;27351;45.992;12.666;2023-01-25T04:47:09;5.87;;;3.07;;
41661;SDS011;27351;45.992;12.666;2023-01-25T04:49:34;6.97;;;3.73;;
41661;SDS011;27351;45.992;12.666;2023-01-25T04:52:00;8.02;;;3.70;;
41661;SDS011;27351;45.992;12.666;2023-01-25T04:54:26;6.82;;;3.63;;
41661;SDS011;27351;45.992;12.666;2023-01-25T04:56:52;8.88;;;4.38;;
41661;SDS011;27351;45.992;12.666;2023-01-25T04:59:19;7.77;;;4.13;;
41661;SDS011;27351;45.992;12.666;2023-01-25T05:01:45;8.68;;;4.15;;
41661;SDS011;27351;45.992;12.666;2023-01-25T05:04:10;8.33;;;3.93;;
41661;SDS011;27351;45.992;12.666;2023-01-25T05:06:39;7.40;;;4.50;;
41661;SDS011;27351;45.992;12.666;2023-01-25T05:11:52;7.68;;;4.60;;
41661;SDS011;27351;45.992;12.666;2023-01-25T05:14:44;9.52;;;5.15;;
41661;SDS011;27351;45.992;12.666;2023-01-25T05:17:10;9.63;;;5.13;;
41661;SDS011;27351;45.992;12.666;2023-01-25T05:19:35;9.37;;;5.10;;
41661;SDS011;27351;45.992;12.666;2023-01-25T05:22:04;9.35;;;5.25;;
41661;SDS011;27351;45.992;12.666;2023-01-25T05:24:41;10.20;;;5.80;;
41661;SDS011;27351;45.992;12.666;2023-01-25T05:27:08;9.55;;;5.60;;
41661;SDS011;27351;45.992;12.666;2023-01-25T05:29:57;9.30;;;5.07;;
41661;SDS011;27351;45.992;12.666;2023-01-25T05:32:36;9.27;;;4.95;;
41661;SDS011;27351;45.992;12.666;2023-01-25T05:35:02;9.48;;;4.80;;
41661;SDS011;27351;45.992;12.666;2023-01-25T05:37:28;10.90;;;5.50;;
41661;SDS011;27351;45.992;12.666;2023-01-25T05:39:59;10.73;;;5.47;;
41661;SDS011;27351;45.992;12.666;2023-01-25T05:42:25;9.13;;;4.35;;
41661;SDS011;27351;45.992;12.666;2023-01-25T05:44:51;11.95;;;4.70;;
41661;SDS011;27351;45.992;12.666;2023-01-25T05:47:18;11.15;;;5.07;;
41661;SDS011;27351;45.992;12.666;2023-01-25T05:49:43;8.88;;;5.07;;
41661;SDS011;27351;45.992;12.666;2023-01-25T05:52:15;10.85;;;5.88;;
41661;SDS011;27351;45.992;12.666;2023-01-25T05:54:42;9.50;;;5.00;;
41661;SDS011;27351;45.992;12.666;2023-01-25T05:57:12;9.00;;;5.18;;
41661;SDS011;27351;45.992;12.666;2023-01-25T05:59:41;10.17;;;5.33;;
41661;SDS011;27351;45.992;12.666;2023-01-25T06:02:09;9.80;;;5.40;;
41661;SDS011;27351;45.992;12.666;2023-01-25T06:04:34;11.50;;;5.65;;
41661;SDS011;27351;45.992;12.666;2023-01-25T06:07:00;10.15;;;5.50;;
41661;SDS011;27351;45.992;12.666;2023-01-25T06:09:26;8.82;;;4.88;;
41661;SDS011;27351;45.992;12.666;2023-01-25T06:11:51;10.47;;;5.90;;
41661;SDS011;27351;45.992;12.666;2023-01-25T06:14:17;12.13;;;5.83;;
41661;SDS011;27351;45.992;12.666;2023-01-25T06:16:42;9.80;;;5.17;;
41661;SDS011;27351;45.992;12.666;2023-01-25T06:19:43;10.15;;;5.82;;
41661;SDS011;27351;45.992;12.666;2023-01-25T06:22:36;10.45;;;5.90;;
41661;SDS011;27351;45.992;12.666;2023-01-25T06:25:01;11.07;;;6.10;;
41661;SDS011;27351;45.992;12.666;2023-01-25T06:27:27;10.20;;;5.60;;
41661;SDS011;27351;45.992;12.666;2023-01-25T06:29:52;11.38;;;6.15;;
41661;SDS011;27351;45.992;12.666;2023-01-25T06:32:19;10.90;;;6.03;;
41661;SDS011;27351;45.992;12.666;2023-01-25T06:34:45;11.27;;;6.18;;
41661;SDS011;27351;45.992;12.666;2023-01-25T06:37:17;12.23;;;6.30;;
41661;SDS011;27351;45.992;12.666;2023-01-25T06:39:42;13.60;;;6.20;;
41661;SDS011;27351;45.992;12.666;2023-01-25T06:42:08;10.80;;;6.53;;
41661;SDS011;27351;45.992;12.666;2023-01-25T06:44:33;13.18;;;6.75;;
41661;SDS011;27351;45.992;12.666;2023-01-25T06:46:59;11.63;;;6.80;;
41661;SDS011;27351;45.992;12.666;2023-01-25T06:49:24;12.50;;;6.65;;
41661;SDS011;27351;45.992;12.666;2023-01-25T06:51:50;12.35;;;6.25;;
41661;SDS011;27351;45.992;12.666;2023-01-25T06:54:15;10.48;;;6.53;;
41661;SDS011;27351;45.992;12.666;2023-01-25T06:56:41;14.15;;;7.95;;
41661;SDS011;27351;45.992;12.666;2023-01-25T06:59:06;17.70;;;10.13;;
41661;SDS011;27351;45.992;12.666;2023-01-25T07:01:32;14.35;;;9.13;;
41661;SDS011;27351;45.992;12.666;2023-01-25T07:03:58;18.90;;;10.80;;
41661;SDS011;27351;45.992;12.666;2023-01-25T07:06:23;16.10;;;9.63;;
41661;SDS011;27351;45.992;12.666;2023-01-25T07:08:49;16.88;;;10.00;;
41661;SDS011;27351;45.992;12.666;2023-01-25T07:11:16;15.68;;;9.25;;
41661;SDS011;27351;45.992;12.666;2023-01-25T07:13:43;18.70;;;11.82;;
41661;SDS011;27351;45.992;12.666;2023-01-25T07:16:16;12.43;;;7.68;;
41661;SDS011;27351;45.992;12.666;2023-01-25T07:18:43;10.90;;;6.40;;
41661;SDS011;27351;45.992;12.666;2023-01-25T07:21:18;12.07;;;6.53;;
41661;SDS011;27351;45.992;12.666;2023-01-25T07:23:45;11.27;;;6.43;;
41661;SDS011;27351;45.992;12.666;2023-01-25T07:26:15;12.52;;;7.30;;
41661;SDS011;27351;45.992;12.666;2023-01-25T07:28:41;18.03;;;8.53;;
41661;SDS011;27351;45.992;12.666;2023-01-25T07:31:07;17.50;;;8.50;;
41661;SDS011;27351;45.992;12.666;2023-01-25T07:33:33;15.30;;;8.40;;
41661;SDS011;27351;45.992;12.666;2023-01-25T07:36:02;13.50;;;7.40;;
41661;SDS011;27351;45.992;12.666;2023-01-25T07:38:28;13.20;;;7.45;;
41661;SDS011;27351;45.992;12.666;2023-01-25T07:40:54;12.40;;;6.97;;
41661;SDS011;27351;45.992;12.666;2023-01-25T17:35:17;12.93;;;7.28;;
41661;SDS011;27351;45.992;12.666;2023-01-25T17:37:43;13.40;;;7.57;;
41661;SDS011;27351;45.992;12.666;2023-01-25T17:40:09;12.80;;;7.37;;
41661;SDS011;27351;45.992;12.666;2023-01-25T17:42:35;13.82;;;7.63;;
41661;SDS011;27351;45.992;12.666;2023-01-25T17:45:01;16.63;;;8.47;;
41661;SDS011;27351;45.992;12.666;2023-01-25T17:47:27;13.68;;;7.57;;
41661;SDS011;27351;45.992;12.666;2023-01-25T17:49:53;15.70;;;7.87;;
41661;SDS011;27351;45.992;12.666;2023-01-25T17:52:19;17.42;;;9.38;;
41661;SDS011;27351;45.992;12.666;2023-01-25T17:54:45;16.73;;;9.13;;
41661;SDS011;27351;45.992;12.666;2023-01-25T17:57:11;17.13;;;10.87;;
41661;SDS011;27351;45.992;12.666;2023-01-25T17:59:36;19.23;;;9.60;;
41661;SDS011;27351;45.992;12.666;2023-01-25T18:02:02;17.98;;;10.02;;
41661;SDS011;27351;45.992;12.666;2023-01-25T18:04:28;16.30;;;9.35;;
41661;SDS011;27351;45.992;12.666;2023-01-25T18:06:54;20.13;;;11.50;;
41661;SDS011;27351;45.992;12.666;2023-01-25T18:09:20;19.47;;;10.77;;
41661;SDS011;27351;45.992;12.666;2023-01-25T18:11:45;23.15;;;12.68;;
41661;SDS011;27351;45.992;12.666;2023-01-25T18:14:13;23.75;;;13.48;;
41661;SDS011;27351;45.992;12.666;2023-01-25T18:16:42;23.53;;;12.83;;
41661;SDS011;27351;45.992;12.666;2023-01-25T18:19:09;21.25;;;12.63;;
41661;SDS011;27351;45.992;12.666;2023-01-25T18:21:36;21.05;;;12.88;;
41661;SDS011;27351;45.992;12.666;2023-01-25T18:26:34;17.73;;;9.57;;
41661;SDS011;27351;45.992;12.666;2023-01-25T18:29:05;18.60;;;10.98;;
41661;SDS011;27351;45.992;12.666;2023-01-25T18:31:44;14.63;;;7.95;;
41661;SDS011;27351;45.992;12.666;2023-01-25T18:34:11;15.63;;;7.73;;
41661;SDS011;27351;45.992;12.666;2023-01-25T18:36:37;16.10;;;6.70;;
41661;SDS011;27351;45.992;12.666;2023-01-25T18:39:03;14.33;;;6.40;;
41661;SDS011;27351;45.992;12.666;2023-01-25T18:41:31;14.17;;;6.67;;
41661;SDS011;27351;45.992;12.666;2023-01-25T18:43:56;15.30;;;6.93;;
41661;SDS011;27351;45.992;12.666;2023-01-25T18:46:22;13.88;;;7.70;;
41661;SDS011;27351;45.992;12.666;2023-01-25T18:48:48;14.15;;;7.50;;
41661;SDS011;27351;45.992;12.666;2023-01-25T18:51:15;15.70;;;7.30;;
41661;SDS011;27351;45.992;12.666;2023-01-25T18:53:46;13.05;;;6.95;;
41661;SDS011;27351;45.992;12.666;2023-01-25T18:56:13;13.48;;;6.95;;
41661;SDS011;27351;45.992;12.666;2023-01-25T18:58:39;14.13;;;6.80;;
41661;SDS011;27351;45.992;12.666;2023-01-25T19:01:15;13.13;;;6.60;;
41661;SDS011;27351;45.992;12.666;2023-01-25T19:03:42;13.68;;;6.63;;
41661;SDS011;27351;45.992;12.666;2023-01-25T19:06:08;15.70;;;8.48;;
41661;SDS011;27351;45.992;12.666;2023-01-25T19:08:34;14.23;;;7.90;;
41661;SDS011;27351;45.992;12.666;2023-01-25T19:11:09;14.83;;;8.27;;
41661;SDS011;27351;45.992;12.666;2023-01-25T19:13:36;13.75;;;7.47;;
41661;SDS011;27351;45.992;12.666;2023-01-25T19:16:03;16.20;;;8.60;;
41661;SDS011;27351;45.992;12.666;2023-01-25T19:18:34;13.52;;;7.50;;
41661;SDS011;27351;45.992;12.666;2023-01-25T19:21:00;18.10;;;8.93;;
41661;SDS011;27351;45.992;12.666;2023-01-25T19:23:30;15.55;;;9.02;;
41661;SDS011;27351;45.992;12.666;2023-01-25T19:25:57;16.00;;;10.13;;
41661;SDS011;27351;45.992;12.666;2023-01-25T19:28:23;17.17;;;10.23;;
41661;SDS011;27351;45.992;12.666;2023-01-25T19:30:49;18.95;;;10.75;;
41661;SDS011;27351;45.992;12.666;2023-01-25T19:33:16;18.55;;;11.02;;
41661;SDS011;27351;45.992;12.666;2023-01-25T19:35:42;19.25;;;11.27;;
41661;SDS011;27351;45.992;12.666;2023-01-25T19:38:07;16.27;;;9.15;;
41661;SDS011;27351;45.992;12.666;2023-01-25T19:40:34;17.60;;;9.10;;
41661;SDS011;27351;45.992;12.666;2023-01-25T19:43:00;17.77;;;10.33;;
41661;SDS011;27351;45.992;12.666;2023-01-25T19:45:26;24.27;;;13.00;;
41661;SDS011;27351;45.992;12.666;2023-01-25T19:47:52;22.25;;;12.60;;
41661;SDS011;27351;45.992;12.666;2023-01-25T19:50:20;19.17;;;11.23;;
41661;SDS011;27351;45.992;12.666;2023-01-25T19:52:46;19.17;;;10.23;;
41661;SDS011;27351;45.992;12.666;2023-01-25T19:55:12;19.30;;;10.23;;
41661;SDS011;27351;45.992;12.666;2023-01-25T19:57:40;19.50;;;11.48;;
41661;SDS011;27351;45.992;12.666;2023-01-25T20:00:06;18.60;;;10.50;;
41661;SDS011;27351;45.992;12.666;2023-01-25T20:02:31;18.00;;;9.90;;
41661;SDS011;27351;45.992;12.666;2023-01-25T20:04:58;17.85;;;10.40;;
41661;SDS011;27351;45.992;12.666;2023-01-25T20:07:24;21.07;;;12.07;;
41661;SDS011;27351;45.992;12.666;2023-01-25T20:09:52;27.40;;;15.43;;
41661;SDS011;27351;45.992;12.666;2023-01-25T20:12:18;21.93;;;13.13;;
41661;SDS011;27351;45.992;12.666;2023-01-25T20:14:44;22.73;;;13.02;;
41661;SDS011;27351;45.992;12.666;2023-01-25T20:17:09;25.73;;;14.40;;
41661;SDS011;27351;45.992;12.666;2023-01-25T20:19:35;27.80;;;16.75;;
41661;SDS011;27351;45.992;12.666;2023-01-25T20:22:01;28.30;;;16.45;;
41661;SDS011;27351;45.992;12.666;2023-01-25T20:24:27;29.17;;;16.55;;
41661;SDS011;27351;45.992;12.666;2023-01-25T20:26:53;25.88;;;15.25;;
41661;SDS011;27351;45.992;12.666;2023-01-25T20:29:25;25.90;;;15.55;;
41661;SDS011;27351;45.992;12.666;2023-01-25T20:31:53;26.63;;;15.07;;
41661;SDS011;27351;45.992;12.666;2023-01-25T20:34:20;25.20;;;15.00;;
41661;SDS011;27351;45.992;12.666;2023-01-25T20:36:46;25.30;;;15.13;;
41661;SDS011;27351;45.992;12.666;2023-01-25T20:39:13;24.67;;;14.30;;
41661;SDS011;27351;45.992;12.666;2023-01-25T20:41:40;25.75;;;15.15;;
41661;SDS011;27351;45.992;12.666;2023-01-25T20:44:06;25.67;;;14.75;;
41661;SDS011;27351;45.992;12.666;2023-01-25T20:46:33;23.50;;;14.23;;
41661;SDS011;27351;45.992;12.666;2023-01-25T20:49:02;25.77;;;14.80;;
41661;SDS011;27351;45.992;12.666;2023-01-25T20:51:29;25.17;;;13.87;;
41661;SDS011;27351;45.992;12.666;2023-01-25T20:53:55;25.30;;;14.95;;
41661;SDS011;27351;45.992;12.666;2023-01-25T20:56:21;25.07;;;13.60;;
41661;SDS011;27351;45.992;12.666;2023-01-25T20:58:47;25.73;;;13.88;;
41661;SDS011;27351;45.992;12.666;2023-01-25T21:01:18;21.95;;;12.52;;
41661;SDS011;27351;45.992;12.666;2023-01-25T21:03:45;23.67;;;12.48;;
41661;SDS011;27351;45.992;12.666;2023-01-25T21:06:13;23.20;;;13.23;;
41661;SDS011;27351;45.992;12.666;2023-01-25T21:08:39;21.05;;;13.10;;
41661;SDS011;27351;45.992;12.666;2023-01-25T21:11:06;25.25;;;12.68;;
41661;SDS011;27351;45.992;12.666;2023-01-25T21:13:33;23.83;;;13.88;;
41661;SDS011;27351;45.992;12.666;2023-01-25T21:16:04;26.47;;;15.53;;
41661;SDS011;27351;45.992;12.666;2023-01-25T21:18:32;33.92;;;17.60;;
41661;SDS011;27351;45.992;12.666;2023-01-25T21:21:08;32.83;;;16.00;;
41661;SDS011;27351;45.992;12.666;2023-01-25T21:23:34;27.08;;;14.48;;
41661;SDS011;27351;45.992;12.666;2023-01-25T21:26:01;25.63;;;13.55;;
41661;SDS011;27351;45.992;12.666;2023-01-25T21:28:28;27.50;;;14.15;;
41661;SDS011;27351;45.992;12.666;2023-01-25T21:30:55;22.00;;;13.15;;
41661;SDS011;27351;45.992;12.666;2023-01-25T21:33:22;22.60;;;12.23;;
41661;SDS011;27351;45.992;12.666;2023-01-25T21:35:49;18.97;;;11.73;;
41661;SDS011;27351;45.992;12.666;2023-01-25T21:38:18;22.20;;;12.98;;
41661;SDS011;27351;45.992;12.666;2023-01-25T21:40:45;19.30;;;11.27;;
41661;SDS011;27351;45.992;12.666;2023-01-25T21:43:10;20.42;;;11.55;;
41661;SDS011;27351;45.992;12.666;2023-01-25T21:45:36;19.37;;;11.40;;
41661;SDS011;27351;45.992;12.666;2023-01-25T21:48:21;19.77;;;10.80;;
41661;SDS011;27351;45.992;12.666;2023-01-25T21:51:10;17.17;;;9.18;;
41661;SDS011;27351;45.992;12.666;2023-01-25T21:53:54;16.90;;;9.55;;
41661;SDS011;27351;45.992;12.666;2023-01-25T21:56:21;17.55;;;9.90;;
41661;SDS011;27351;45.992;12.666;2023-01-25T21:58:47;20.37;;;11.47;;
41661;SDS011;27351;45.992;12.666;2023-01-25T22:01:12;22.27;;;12.98;;
41661;SDS011;27351;45.992;12.666;2023-01-25T22:03:38;20.90;;;12.13;;
41661;SDS011;27351;45.992;12.666;2023-01-25T22:06:04;21.57;;;11.30;;
41661;SDS011;27351;45.992;12.666;2023-01-25T22:08:30;19.03;;;10.93;;
41661;SDS011;27351;45.992;12.666;2023-01-25T22:11:02;18.85;;;10.35;;
41661;SDS011;27351;45.992;12.666;2023-01-25T22:13:29;18.73;;;10.50;;
41661;SDS011;27351;45.992;12.666;2023-01-25T22:15:58;20.33;;;11.00;;
41661;SDS011;27351;45.992;12.666;2023-01-25T22:18:24;22.85;;;12.02;;
41661;SDS011;27351;45.992;12.666;2023-01-25T22:20:57;23.07;;;11.97;;
41661;SDS011;27351;45.992;12.666;2023-01-25T22:23:24;22.52;;;12.80;;
41661;SDS011;27351;45.992;12.666;2023-01-25T22:25:58;19.83;;;11.77;;
41661;SDS011;27351;45.992;12.666;2023-01-25T22:28:25;21.15;;;11.50;;
41661;SDS011;27351;45.992;12.666;2023-01-25T22:30:51;20.20;;;11.23;;
41661;SDS011;27351;45.992;12.666;2023-01-25T22:33:17;17.88;;;10.07;;
41661;SDS011;27351;45.992;12.666;2023-01-25T22:35:45;19.67;;;11.23;;
41661;SDS011;27351;45.992;12.666;2023-01-25T22:38:11;24.70;;;11.60;;
41661;SDS011;27351;45.992;12.666;2023-01-25T22:40:37;18.43;;;10.37;;
41661;SDS011;27351;45.992;12.666;2023-01-25T22:43:03;18.67;;;10.02;;
41661;SDS011;27351;45.992;12.666;2023-01-25T22:45:29;16.30;;;9.65;;
41661;SDS011;27351;45.992;12.666;2023-01-25T22:47:55;17.92;;;9.98;;
41661;SDS011;27351;45.992;12.666;2023-01-25T22:50:21;19.53;;;10.77;;
41661;SDS011;27351;45.992;12.666;2023-01-25T22:52:47;18.55;;;11.18;;
41661;SDS011;27351;45.992;12.666;2023-01-25T22:55:13;15.68;;;8.93;;
41661;SDS011;27351;45.992;12.666;2023-01-25T22:57:39;18.30;;;9.50;;
41661;SDS011;27351;45.992;12.666;2023-01-25T23:00:06;21.10;;;10.23;;
41661;SDS011;27351;45.992;12.666;2023-01-25T23:02:32;17.80;;;9.77;;
41661;SDS011;27351;45.992;12.666;2023-01-25T23:04:58;18.30;;;10.40;;
41661;SDS011;27351;45.992;12.666;2023-01-25T23:07:25;18.73;;;10.35;;
41661;SDS011;27351;45.992;12.666;2023-01-25T23:09:51;16.60;;;9.65;;
41661;SDS011;27351;45.992;12.666;2023-01-25T23:12:18;20.33;;;10.35;;
41661;SDS011;27351;45.992;12.666;2023-01-25T23:14:43;20.13;;;11.00;;
41661;SDS011;27351;45.992;12.666;2023-01-25T23:17:16;22.45;;;11.02;;
41661;SDS011;27351;45.992;12.666;2023-01-25T23:20:01;23.20;;;11.30;;
41661;SDS011;27351;45.992;12.666;2023-01-25T23:22:27;20.67;;;12.10;;
41661;SDS011;27351;45.992;12.666;2023-01-25T23:24:53;21.77;;;11.60;;
41661;SDS011;27351;45.992;12.666;2023-01-25T23:27:19;22.00;;;11.65;;
41661;SDS011;27351;45.992;12.666;2023-01-25T23:29:46;20.98;;;11.63;;
41661;SDS011;27351;45.992;12.666;2023-01-25T23:32:13;24.17;;;12.02;;
41661;SDS011;27351;45.992;12.666;2023-01-25T23:34:40;19.17;;;10.48;;
41661;SDS011;27351;45.992;12.666;2023-01-25T23:37:06;17.30;;;10.02;;
41661;SDS011;27351;45.992;12.666;2023-01-25T23:39:32;19.77;;;9.90;;
41661;SDS011;27351;45.992;12.666;2023-01-25T23:41:58;21.23;;;10.63;;
41661;SDS011;27351;45.992;12.666;2023-01-25T23:44:24;21.47;;;10.90;;
41661;SDS011;27351;45.992;12.666;2023-01-25T23:46:49;19.00;;;9.00;;
41661;SDS011;27351;45.992;12.666;2023-01-25T23:49:15;17.45;;;9.95;;
41661;SDS011;27351;45.992;12.666;2023-01-25T23:51:41;16.80;;;8.83;;
41661;SDS011;27351;45.992;12.666;2023-01-25T23:54:06;17.20;;;10.17;;
41661;SDS011;27351;45.992;12.666;2023-01-25T23:56:33;19.08;;;10.05;;
41661;SDS011;27351;45.992;12.666;2023-01-25T23:58:58;18.88;;;9.95;;
